Time;durP1;ratioP1;P1;durP2;ratioP2;P2;SDS_P1;SDS_P2;PMS_P1;PMS_P2;Temp;Humidity;BMP_temperature;BMP_pressure;BME280_temperature;BME280_humidity;BME280_pressure;Samples;Min_cycle;Max_cycle;Signal;HPM_P1;HPM_P2
2021/07/13 00:00:11;;;;;;;1999.90;999.90;;;;;;;18.79;83.09;95615.22;5070632;28;20246;-70
2021/07/13 00:02:39;;;;;;;1999.90;999.90;;;;;;;18.80;82.87;95609.63;5070580;28;20276;-71
2021/07/13 00:05:10;;;;;;;1999.90;999.90;;;;;;;18.76;83.77;95611.41;5071040;28;20225;-71
2021/07/13 00:07:37;;;;;;;1999.90;999.90;;;;;;;18.80;84.16;95609.63;5070690;28;20185;-72
2021/07/13 00:10:06;;;;;;;1999.90;999.90;;;;;;;18.69;84.80;95616.50;5070583;28;20205;-74
2021/07/13 00:12:33;;;;;;;1999.90;999.90;;;;;;;18.70;84.76;95607.50;5070802;28;20334;-71
2021/07/13 00:15:01;;;;;;;1999.90;999.90;;;;;;;18.81;83.66;95616.41;5070433;28;20669;-71
2021/07/13 00:17:29;;;;;;;1999.90;999.90;;;;;;;18.86;83.26;95616.16;5070047;28;20192;-72
2021/07/13 00:19:57;;;;;;;1999.90;999.90;;;;;;;18.73;83.58;95612.09;5070384;28;20236;-73
2021/07/13 00:22:24;;;;;;;1999.90;999.90;;;;;;;18.77;83.60;95610.31;5070025;28;20693;-72
2021/07/13 00:24:51;;;;;;;1999.90;999.90;;;;;;;18.75;83.50;95620.41;5069716;28;20286;-74
2021/07/13 00:27:19;;;;;;;1999.90;999.90;;;;;;;18.52;84.53;95616.84;5069951;28;20576;-74
2021/07/13 00:29:46;;;;;;;1999.90;999.90;;;;;;;18.40;85.77;95615.06;5069906;28;20791;-73
2021/07/13 00:32:13;;;;;;;1999.90;999.90;;;;;;;18.48;85.44;95618.59;5070086;28;20687;-74
2021/07/13 00:34:42;;;;;;;1999.90;999.90;;;;;;;18.34;85.81;95616.41;5069920;28;20291;-70
2021/07/13 00:37:09;;;;;;;1999.90;999.90;;;;;;;18.15;87.59;95615.53;5069904;28;20243;-71
2021/07/13 00:39:36;;;;;;;1999.90;999.90;;;;;;;18.26;87.07;95613.94;5069911;28;20334;-70
2021/07/13 00:42:04;;;;;;;1999.90;999.90;;;;;;;18.45;86.12;95617.44;5069896;28;20236;-70
2021/07/13 00:44:31;;;;;;;1999.90;999.90;;;;;;;18.52;85.53;95622.09;5069647;28;20207;-69
2021/07/13 00:47:01;;;;;;;1999.90;999.90;;;;;;;18.64;83.85;95616.00;5069628;28;20291;-70
2021/07/13 00:49:28;;;;;;;1999.90;999.90;;;;;;;18.55;84.13;95621.44;5069667;28;20236;-72
2021/07/13 00:51:57;;;;;;;1999.90;999.90;;;;;;;18.57;84.29;95626.38;5069575;28;20214;-71
2021/07/13 00:54:25;;;;;;;1999.90;999.90;;;;;;;18.44;85.05;95623.03;5069623;28;20206;-71
2021/07/13 00:56:53;;;;;;;1999.90;999.90;;;;;;;18.43;85.20;95613.63;5069909;28;20730;-72
2021/07/13 00:59:21;;;;;;;1999.90;999.90;;;;;;;18.41;85.42;95616.59;5069296;28;20261;-71
2021/07/13 01:01:48;;;;;;;1999.90;999.90;;;;;;;18.34;85.66;95615.63;5069842;28;20275;-71
2021/07/13 01:04:18;;;;;;;1999.90;999.90;;;;;;;18.37;85.04;95620.25;5069393;28;20589;-72
2021/07/13 01:06:51;;;;;;;1999.90;999.90;;;;;;;18.34;85.25;95615.63;5069539;28;20276;-72
2021/07/13 01:09:32;;;;;;;1999.90;999.90;;;;;;;18.04;86.15;95613.41;5069407;28;20276;-71
2021/07/13 01:12:07;;;;;;;1999.90;999.90;;;;;;;17.90;86.99;95609.66;5069397;28;20264;-72
2021/07/13 01:14:40;;;;;;;1999.90;999.90;;;;;;;17.83;87.26;95607.59;5069356;28;20184;-72
2021/07/13 01:17:14;;;;;;;1999.90;999.90;;;;;;;17.95;86.67;95604.16;5069271;28;20184;-72
2021/07/13 01:20:22;;;;;;;1999.90;999.90;;;;;;;17.87;87.19;95607.72;5069012;28;20239;-72
2021/07/13 01:22:55;;;;;;;1999.90;999.90;;;;;;;17.89;87.16;95618.63;5069245;28;20196;-72
2021/07/13 01:25:32;;;;;;;1999.90;999.90;;;;;;;17.90;87.38;95613.03;5068999;28;20201;-77
2021/07/13 01:28:07;;;;;;;1999.90;999.90;;;;;;;17.86;87.41;95609.56;5069009;28;20258;-70
2021/07/13 01:30:39;;;;;;;1999.90;999.90;;;;;;;17.94;87.28;95608.63;5069047;28;20258;-69
2021/07/13 01:33:11;;;;;;;1999.90;999.90;;;;;;;18.06;85.87;95605.97;5069051;28;20200;-67
2021/07/13 01:35:44;;;;;;;1999.90;999.90;;;;;;;17.95;86.69;95612.81;5068148;28;20181;-70
2021/07/13 01:38:14;;;;;;;1999.90;999.90;;;;;;;17.86;87.01;95608.78;5069120;28;20195;-69
2021/07/13 01:40:43;;;;;;;1999.90;999.90;;;;;;;17.89;86.86;95621.25;5069181;28;20196;-69
2021/07/13 01:43:12;;;;;;;1999.90;999.90;;;;;;;17.88;87.33;95625.03;5069071;28;20283;-69
2021/07/13 01:45:41;;;;;;;1999.90;999.90;;;;;;;17.79;87.60;95627.00;5068849;28;20224;-67
2021/07/13 01:48:11;;;;;;;1999.90;999.90;;;;;;;17.85;87.58;95621.19;5068550;28;20204;-69
2021/07/13 01:50:39;;;;;;;1999.90;999.90;;;;;;;17.75;88.03;95626.91;5069149;28;20599;-69
2021/07/13 01:53:07;;;;;;;1999.90;999.90;;;;;;;17.78;88.09;95631.53;5068990;28;20208;-69
2021/07/13 01:55:35;;;;;;;1999.90;999.90;;;;;;;17.77;88.02;95627.34;5068720;28;20543;-71
2021/07/13 01:58:04;;;;;;;1999.90;999.90;;;;;;;17.85;87.70;95618.56;5068724;28;20244;-73
2021/07/13 02:00:33;;;;;;;1999.90;999.90;;;;;;;17.89;87.29;95624.66;5068814;28;20254;-71
2021/07/13 02:03:03;;;;;;;1999.90;999.90;;;;;;;17.93;87.02;95628.13;5068402;28;20234;-70
2021/07/13 02:05:32;;;;;;;1999.90;999.90;;;;;;;17.86;87.14;95622.72;5068642;28;20263;-70
2021/07/13 02:08:02;;;;;;;1999.90;999.90;;;;;;;17.73;87.36;95623.88;5068449;28;20203;-71
2021/07/13 02:10:30;;;;;;;1999.90;999.90;;;;;;;17.59;88.57;95618.97;5068569;28;20284;-69
2021/07/13 02:12:58;;;;;;;1999.90;999.90;;;;;;;17.57;88.32;95620.41;5066691;28;20231;-69
2021/07/13 02:15:25;;;;;;;1999.90;999.90;;;;;;;17.53;88.51;95620.28;5058962;28;20200;-73
2021/07/13 02:17:54;;;;;;;1999.90;999.90;;;;;;;17.50;89.76;95625.44;5061971;28;20676;-78
2021/07/13 02:20:24;;;;;;;1999.90;999.90;;;;;;;17.42;89.67;95626.34;5068611;28;20253;-69
2021/07/13 02:22:52;;;;;;;1999.90;999.90;;;;;;;17.37;89.91;95623.97;5068506;28;20193;-72
2021/07/13 02:25:19;;;;;;;1999.90;999.90;;;;;;;17.37;90.05;95623.97;5048258;28;20217;-73
2021/07/13 02:27:55;;;;;;;1999.90;999.90;;;;;;;17.41;89.60;95624.81;5048504;28;20243;-72
2021/07/13 02:30:25;;;;;;;1999.90;999.90;;;;;;;17.34;90.26;95621.97;5048372;28;20220;-72
2021/07/13 02:33:00;;;;;;;1999.90;999.90;;;;;;;17.34;90.37;95624.59;5048012;28;20189;-73
2021/07/13 02:35:35;;;;;;;1999.90;999.90;;;;;;;17.19;90.98;95626.06;5048372;28;20189;-71
2021/07/13 02:38:04;;;;;;;1999.90;999.90;;;;;;;17.18;90.98;95624.56;5047935;28;20193;-72
2021/07/13 02:40:32;;;;;;;1999.90;999.90;;;;;;;17.19;91.19;95626.06;5048493;28;20205;-71
2021/07/13 02:43:01;;;;;;;1999.90;999.90;;;;;;;17.23;91.01;95631.44;5047976;28;20197;-70
2021/07/13 02:45:29;;;;;;;1999.90;999.90;;;;;;;17.23;90.90;95617.19;5048067;28;20225;-70
2021/07/13 02:47:59;;;;;;;1999.90;999.90;;;;;;;17.25;90.79;95621.34;5051798;28;20213;-71
2021/07/13 02:50:28;;;;;;;1999.90;999.90;;;;;;;17.26;90.54;95620.25;5051807;28;20709;-70
2021/07/13 02:52:57;;;;;;;1999.90;999.90;;;;;;;17.23;90.34;95621.72;5052130;28;20197;-71
2021/07/13 02:55:25;;;;;;;1999.90;999.90;;;;;;;17.23;90.66;95625.06;5052148;28;20197;-76
2021/07/13 02:57:54;;;;;;;1999.90;999.90;;;;;;;17.28;89.63;95620.72;5052225;28;20232;-71
2021/07/13 03:00:23;;;;;;;1999.90;999.90;;;;;;;17.18;90.52;95620.03;5051395;28;20205;-71
2021/07/13 03:02:52;;;;;;;1999.90;999.90;;;;;;;17.16;90.50;95624.88;5051634;28;20287;-72
2021/07/13 03:05:23;;;;;;;1999.90;999.90;;;;;;;17.16;90.51;95622.25;5051069;28;20685;-72
2021/07/13 03:07:52;;;;;;;1999.90;999.90;;;;;;;17.14;90.48;95619.19;5051677;28;20276;-71
2021/07/13 03:10:22;;;;;;;1999.90;999.90;;;;;;;17.12;90.33;95636.38;5051464;28;20193;-72
2021/07/13 03:12:50;;;;;;;1999.90;999.90;;;;;;;17.12;90.33;95626.66;5051266;28;20974;-71
2021/07/13 03:15:20;;;;;;;1999.90;999.90;;;;;;;17.15;90.64;95628.59;5051391;28;20212;-71
2021/07/13 03:17:47;;;;;;;1999.90;999.90;;;;;;;17.04;90.86;95635.41;5050837;28;20212;-72
2021/07/13 03:20:15;;;;;;;1999.90;999.90;;;;;;;17.11;90.73;95634.84;5071015;28;20966;-71
2021/07/13 03:22:46;;;;;;;1999.90;999.90;;;;;;;17.20;90.95;95633.63;5070779;28;20228;-73
2021/07/13 03:25:17;;;;;;;1999.90;999.90;;;;;;;17.21;90.71;95634.41;5071367;28;20196;-71
2021/07/13 03:27:45;;;;;;;1999.90;999.90;;;;;;;17.30;90.66;95631.63;5071090;28;20185;-72
2021/07/13 03:30:14;;;;;;;1999.90;999.90;;;;;;;17.34;90.49;95630.63;5071334;28;20191;-68
2021/07/13 03:32:42;;;;;;;1999.90;999.90;;;;;;;17.42;89.41;95629.75;5071542;28;20227;-71
2021/07/13 03:35:11;;;;;;;1999.90;999.90;;;;;;;17.32;90.24;95635.47;5071357;28;20199;-71
2021/07/13 03:37:39;;;;;;;1999.90;999.90;;;;;;;17.34;90.61;95629.88;5071073;28;20199;-71
2021/07/13 03:40:10;;;;;;;1999.90;999.90;;;;;;;17.35;90.32;95628.78;5067385;28;20197;-71
2021/07/13 03:42:37;;;;;;;1999.90;999.90;;;;;;;17.40;90.29;95628.53;5071401;28;20195;-69
2021/07/13 03:45:06;;;;;;;1999.90;999.90;;;;;;;17.48;89.98;95632.91;5070774;28;20231;-72
2021/07/13 03:47:34;;;;;;;1999.90;999.90;;;;;;;17.50;89.47;95630.69;5070507;28;20608;-69
2021/07/13 03:50:02;;;;;;;1999.90;999.90;;;;;;;17.53;89.60;95632.69;5071085;28;20210;-71
2021/07/13 03:52:29;;;;;;;1999.90;999.90;;;;;;;17.55;89.85;95633.09;5070829;28;20208;-74
2021/07/13 03:54:57;;;;;;;1999.90;999.90;;;;;;;17.57;89.89;95636.16;5068669;28;20243;-67
2021/07/13 03:57:25;;;;;;;1999.90;999.90;;;;;;;17.59;90.42;95637.38;5070310;28;20283;-68
2021/07/13 03:59:52;;;;;;;1999.90;999.90;;;;;;;17.73;89.20;95634.38;5068331;28;20276;-68
2021/07/13 04:02:20;;;;;;;1999.90;999.90;;;;;;;17.76;89.69;95632.94;5067156;28;20208;-68
2021/07/13 04:04:47;;;;;;;1999.90;999.90;;;;;;;17.79;89.69;95632.25;5067021;28;20200;-68
2021/07/13 04:07:14;;;;;;;1999.90;999.90;;;;;;;17.87;89.83;95624.25;5067213;28;20609;-68
2021/07/13 04:09:41;;;;;;;1999.90;999.90;;;;;;;17.93;89.29;95627.41;5067241;28;20205;-67
2021/07/13 04:12:09;;;;;;;1999.90;999.90;;;;;;;17.94;89.23;95624.41;5067137;28;20196;-68
2021/07/13 04:14:37;;;;;;;1999.90;999.90;;;;;;;17.94;90.06;95629.69;5067111;28;20261;-71
2021/07/13 04:17:05;;;;;;;1999.90;999.90;;;;;;;18.00;90.53;95619.69;5069832;28;20203;-71
2021/07/13 04:19:32;;;;;;;1999.90;999.90;;;;;;;18.00;92.22;95617.06;5070017;28;20657;-69
2021/07/13 04:21:59;;;;;;;1999.90;999.90;;;;;;;18.09;92.94;95622.91;5070159;28;20184;-69
2021/07/13 04:24:26;;;;;;;1999.90;999.90;;;;;;;18.33;92.37;95627.28;5070454;28;20680;-68
2021/07/13 04:26:53;;;;;;;1999.90;999.90;;;;;;;18.48;92.13;95621.22;5070536;28;20229;-69
2021/07/13 04:29:21;;;;;;;1999.90;999.90;;;;;;;18.62;91.51;95626.13;5069807;28;20235;-70
2021/07/13 04:31:49;;;;;;;1999.90;999.90;;;;;;;18.66;90.01;95616.44;5070391;28;20674;-69
2021/07/13 04:34:16;;;;;;;1999.90;999.90;;;;;;;18.98;89.83;95625.06;5070216;28;20205;-77
2021/07/13 04:36:44;;;;;;;1999.90;999.90;;;;;;;19.33;87.81;95623.91;5070149;28;20196;-69
2021/07/13 04:39:11;;;;;;;1999.90;999.90;;;;;;;19.86;85.44;95624.25;5070096;28;20200;-71
2021/07/13 04:41:38;;;;;;;1999.90;999.90;;;;;;;20.36;81.71;95620.63;5069995;28;20204;-71
2021/07/13 04:44:05;;;;;;;1999.90;999.90;;;;;;;20.28;81.46;95624.22;5069955;28;20206;-71
2021/07/13 04:46:33;;;;;;;1999.90;999.90;;;;;;;20.78;79.77;95622.41;5069751;28;20299;-71
2021/07/13 04:49:01;;;;;;;1999.90;999.90;;;;;;;21.03;77.15;95623.53;5069722;28;20196;-71
2021/07/13 04:51:28;;;;;;;1999.90;999.90;;;;;;;21.30;76.25;95627.72;5069544;28;20727;-70
2021/07/13 04:53:56;;;;;;;1999.90;999.90;;;;;;;21.25;75.77;95629.91;5069583;28;20747;-72
2021/07/13 04:56:23;;;;;;;1999.90;999.90;;;;;;;21.69;73.88;95625.53;5069525;28;20570;-71
2021/07/13 04:58:50;;;;;;;1999.90;999.90;;;;;;;22.11;71.82;95630.56;5069916;28;20310;-71
2021/07/13 05:01:17;;;;;;;1999.90;999.90;;;;;;;22.26;71.65;95639.41;5069520;28;20555;-71
2021/07/13 05:03:44;;;;;;;1999.90;999.90;;;;;;;22.17;72.79;95629.09;5069428;28;20192;-70
2021/07/13 05:06:14;;;;;;;1999.90;999.90;;;;;;;22.16;74.04;95624.94;5069332;28;20230;-71
2021/07/13 05:08:42;;;;;;;1999.90;999.90;;;;;;;22.31;73.57;95626.59;5069392;28;20196;-70
2021/07/13 05:11:10;;;;;;;1999.90;999.90;;;;;;;22.52;72.54;95630.53;5069455;28;20678;-73
2021/07/13 05:13:38;;;;;;;1999.90;999.90;;;;;;;22.60;72.68;95624.16;5069424;28;20681;-70
2021/07/13 05:16:05;;;;;;;1999.90;999.90;;;;;;;22.81;71.93;95629.66;5069549;28;20193;-71
2021/07/13 05:18:34;;;;;;;1999.90;999.90;;;;;;;22.73;72.21;95628.84;5069370;28;20686;-72
2021/07/13 05:21:04;;;;;;;1999.90;999.90;;;;;;;22.96;71.83;95625.97;5069195;28;20199;-71
2021/07/13 05:23:34;;;;;;;1999.90;999.90;;;;;;;23.30;69.49;95628.44;5069269;28;20200;-71
2021/07/13 05:26:01;;;;;;;1999.90;999.90;;;;;;;23.36;69.05;95637.56;5069372;28;20224;-71
2021/07/13 05:28:28;;;;;;;1999.90;999.90;;;;;;;23.64;68.28;95634.31;5066773;28;20255;-71
2021/07/13 05:30:55;;;;;;;1999.90;999.90;;;;;;;23.78;69.66;95632.47;5069392;28;20196;-71
2021/07/13 05:33:22;;;;;;;1999.90;999.90;;;;;;;23.77;70.30;95625.63;5069298;28;20200;-71
2021/07/13 05:35:49;;;;;;;1999.90;999.90;;;;;;;23.92;70.48;95629.09;5068968;28;20204;-71
2021/07/13 05:38:16;;;;;;;1999.90;999.90;;;;;;;23.97;70.01;95618.88;5069072;28;20204;-72
2021/07/13 05:40:47;;;;;;;1999.90;999.90;;;;;;;24.21;69.93;95617.41;5069169;28;20522;-72
2021/07/13 05:43:15;;;;;;;1999.90;999.90;;;;;;;24.37;68.76;95630.34;5068881;28;20181;-72
2021/07/13 05:45:42;;;;;;;1999.90;999.90;;;;;;;24.55;66.93;95625.06;5068661;28;20236;-71
2021/07/13 05:48:09;;;;;;;1999.90;999.90;;;;;;;24.50;66.45;95628.84;5068918;28;20243;-70
2021/07/13 05:50:37;;;;;;;1999.90;999.90;;;;;;;24.49;64.57;95622.00;5068390;28;20204;-71
2021/07/13 05:53:04;;;;;;;1999.90;999.90;;;;;;;24.85;63.50;95623.53;5068843;28;20199;-71
2021/07/13 05:55:31;;;;;;;1999.90;999.90;;;;;;;24.73;62.69;95621.25;5068876;28;20196;-72
2021/07/13 05:58:00;;;;;;;1999.90;999.90;;;;;;;24.61;64.01;95624.28;5068815;28;20204;-72
2021/07/13 06:00:28;;;;;;;1999.90;999.90;;;;;;;24.69;62.67;95620.50;5068694;28;20696;-71
2021/07/13 06:02:55;;;;;;;1999.90;999.90;;;;;;;24.98;62.00;95625.81;5068660;28;20202;-69
2021/07/13 06:05:22;;;;;;;1999.90;999.90;;;;;;;24.87;61.68;95625.81;5068744;28;20200;-70
2021/07/13 06:07:50;;;;;;;1999.90;999.90;;;;;;;25.17;63.46;95620.06;5068461;28;20224;-72
2021/07/13 06:10:19;;;;;;;1999.90;999.90;;;;;;;25.45;60.50;95617.34;5068963;28;20608;-71
2021/07/13 06:12:46;;;;;;;1999.90;999.90;;;;;;;25.59;61.19;95621.88;5068633;28;20592;-72
2021/07/13 06:15:15;;;;;;;1999.90;999.90;;;;;;;25.77;59.92;95619.88;5068676;28;20762;-72
2021/07/13 06:17:43;;;;;;;1999.90;999.90;;;;;;;26.02;58.08;95627.75;5069073;28;20195;-72
2021/07/13 06:20:12;;;;;;;1999.90;999.90;;;;;;;26.32;57.96;95630.63;5068312;28;20588;-72
2021/07/13 06:22:39;;;;;;;1999.90;999.90;;;;;;;26.24;56.59;95629.19;5071522;28;20236;-72
2021/07/13 06:25:08;;;;;;;1999.90;999.90;;;;;;;25.97;58.00;95620.91;5072488;28;20200;-72
2021/07/13 06:27:35;;;;;;;1999.90;999.90;;;;;;;26.40;56.71;95618.03;5072087;28;20219;-71
2021/07/13 06:30:04;;;;;;;1999.90;999.90;;;;;;;26.55;56.66;95625.50;5072814;28;20303;-71
2021/07/13 06:32:32;;;;;;;1999.90;999.90;;;;;;;26.71;57.41;95626.91;5072346;28;20643;-71
2021/07/13 06:35:01;;;;;;;1999.90;999.90;;;;;;;26.47;57.12;95626.72;5072358;28;20747;-70
2021/07/13 06:37:52;;;;;;;1999.90;999.90;;;;;;;26.59;57.08;95622.06;5072313;28;20197;-72
2021/07/13 06:43:38;;;;;;;1999.90;999.90;;;;;;;26.65;55.91;95621.25;5023773;28;20244;-71
2021/07/13 06:46:06;;;;;;;1999.90;999.90;;;;;;;26.86;54.88;95626.44;5072426;28;20691;-71
2021/07/13 06:48:34;;;;;;;1999.90;999.90;;;;;;;26.97;54.35;95626.34;5072011;28;20239;-70
2021/07/13 06:54:09;;;;;;;1999.90;999.90;;;;;;;27.75;51.42;95620.91;5027740;28;20208;-74
2021/07/13 06:56:57;;;;;;;1999.90;999.90;;;;;;;28.07;51.28;95623.19;5071985;28;20200;-74
2021/07/13 07:05:26;;;;;;;1999.90;999.90;;;;;;;28.34;48.88;95611.78;5037591;28;20238;-71
2021/07/13 07:08:15;;;;;;;1999.90;999.90;;;;;;;27.37;53.21;95598.84;5071647;28;20225;-71
2021/07/13 07:10:42;;;;;;;1999.90;999.90;;;;;;;27.81;53.17;95599.88;5071458;28;20193;-71
2021/07/13 07:13:15;;;;;;;1999.90;999.90;;;;;;;28.33;51.90;95611.00;5072050;28;20266;-70
2021/07/13 07:15:44;;;;;;;1999.90;999.90;;;;;;;28.56;49.31;95594.97;5071017;28;20207;-70
2021/07/13 07:18:12;;;;;;;1999.90;999.90;;;;;;;28.19;50.38;95601.25;5071650;28;20192;-71
2021/07/13 07:20:42;;;;;;;1999.90;999.90;;;;;;;28.12;51.51;95595.28;5071991;28;20239;-71
2021/07/13 07:23:09;;;;;;;1999.90;999.90;;;;;;;28.36;50.08;95591.47;5071968;28;20220;-72
2021/07/13 07:25:37;;;;;;;1999.90;999.90;;;;;;;28.51;50.47;95594.69;5071755;28;20205;-70
2021/07/13 07:28:04;;;;;;;1999.90;999.90;;;;;;;28.41;50.20;95590.25;5071087;28;20236;-70
2021/07/13 07:36:27;;;;;;;1999.90;999.90;;;;;;;28.77;49.25;95588.53;4966955;28;20744;-70
2021/07/13 07:38:56;;;;;;;1999.90;999.90;;;;;;;28.68;48.27;95578.34;4970127;28;20211;-71
2021/07/13 07:41:28;;;;;;;1999.90;999.90;;;;;;;28.93;47.62;95571.84;4969519;28;20199;-70
2021/07/13 07:43:59;;;;;;;1999.90;999.90;;;;;;;29.27;45.90;95569.66;4969887;28;20207;-73
2021/07/13 07:46:30;;;;;;;1999.90;999.90;;;;;;;29.33;46.22;95576.09;4922840;28;20214;-71
2021/07/13 07:48:58;;;;;;;1999.90;999.90;;;;;;;29.46;45.89;95576.97;4969856;28;20326;-72
2021/07/13 07:51:27;;;;;;;1999.90;999.90;;;;;;;29.65;44.17;95569.31;4969703;28;20673;-72
2021/07/13 07:53:54;;;;;;;1999.90;999.90;;;;;;;29.55;46.50;95568.34;4969784;28;20211;-71
2021/07/13 07:56:22;;;;;;;1999.90;999.90;;;;;;;29.92;44.95;95559.94;4969729;28;20211;-70
2021/07/13 07:58:49;;;;;;;1999.90;999.90;;;;;;;29.99;45.04;95569.72;4969606;28;20641;-70
2021/07/13 08:01:17;;;;;;;1999.90;999.90;;;;;;;30.09;44.59;95568.00;4969652;28;20216;-70
2021/07/13 08:03:44;;;;;;;1999.90;999.90;;;;;;;30.35;43.83;95569.69;4969661;28;20771;-70
2021/07/13 08:06:11;;;;;;;1999.90;999.90;;;;;;;30.41;40.06;95561.88;4969626;28;20207;-71
2021/07/13 08:08:39;;;;;;;1999.90;999.90;;;;;;;30.35;43.06;95567.00;4964778;28;20235;-70
2021/07/13 08:11:06;;;;;;;1999.90;999.90;;;;;;;30.23;42.60;95563.06;5032830;28;20200;-71
2021/07/13 08:13:33;;;;;;;1999.90;999.90;;;;;;;30.24;40.29;95561.88;5061060;28;20216;-70
2021/07/13 08:16:00;;;;;;;1999.90;999.90;;;;;;;30.35;42.74;95567.00;5050375;28;20201;-71
2021/07/13 08:18:28;;;;;;;1999.90;999.90;;;;;;;30.54;41.78;95565.41;5055847;28;20192;-71
2021/07/13 08:20:55;;;;;;;1999.90;999.90;;;;;;;30.88;39.25;95567.66;5070537;28;20295;-71
2021/07/13 08:23:22;;;;;;;1999.90;999.90;;;;;;;30.66;39.68;95562.81;5071307;28;20259;-79
2021/07/13 08:25:50;;;;;;;1999.90;999.90;;;;;;;30.71;39.66;95565.00;5071212;28;20248;-81
2021/07/13 08:28:17;;;;;;;1999.90;999.90;;;;;;;31.06;39.59;95562.59;5070342;28;20293;-73
2021/07/13 08:30:45;;;;;;;1999.90;999.90;;;;;;;31.10;39.16;95558.63;5070433;28;20231;-72
2021/07/13 08:33:12;;;;;;;1999.90;999.90;;;;;;;31.03;39.11;95556.16;5070454;28;20242;-72
2021/07/13 08:35:39;;;;;;;1999.90;999.90;;;;;;;31.30;37.87;95555.78;5070102;28;20201;-72
2021/07/13 08:38:06;;;;;;;1999.90;999.90;;;;;;;31.47;38.18;95562.59;5070052;28;20273;-73
2021/07/13 08:40:35;;;;;;;1999.90;999.90;;;;;;;31.13;39.01;95552.41;5070158;28;20203;-73
2021/07/13 08:43:04;;;;;;;1999.90;999.90;;;;;;;31.20;38.45;95556.81;5069835;28;20598;-72
2021/07/13 08:45:32;;;;;;;1999.90;999.90;;;;;;;31.31;38.82;95546.56;5069745;28;20201;-72
2021/07/13 08:47:59;;;;;;;1999.90;999.90;;;;;;;31.21;39.51;95552.97;5069673;28;20691;-72
2021/07/13 08:50:26;;;;;;;1999.90;999.90;;;;;;;31.11;41.55;95548.66;5069825;28;20196;-71
2021/07/13 08:52:53;;;;;;;1999.90;999.90;;;;;;;31.54;39.64;95551.63;5069610;28;20203;-71
2021/07/13 08:55:22;;;;;;;1999.90;999.90;;;;;;;31.16;39.31;95548.13;5070162;28;20204;-71
2021/07/13 08:57:49;;;;;;;1999.90;999.90;;;;;;;30.71;40.22;95548.13;5069630;28;20688;-72
2021/07/13 09:00:20;;;;;;;1999.90;999.90;;;;;;;31.19;39.91;95547.25;5069668;28;20208;-71
2021/07/13 09:03:10;;;;;;;1999.90;999.90;;;;;;;31.69;39.16;95551.25;5069661;28;20207;-72
2021/07/13 09:05:42;;;;;;;1999.90;999.90;;;;;;;31.78;38.00;95551.38;5069497;28;20184;-72
2021/07/13 09:08:17;;;;;;;1999.90;999.90;;;;;;;31.81;38.33;95551.28;5069593;28;20293;-71
2021/07/13 09:11:03;;;;;;;1999.90;999.90;;;;;;;31.63;38.49;95545.69;5069720;28;20602;-72
2021/07/13 09:13:34;;;;;;;1999.90;999.90;;;;;;;31.92;38.00;95548.28;5069371;28;20295;-72
2021/07/13 09:16:06;;;;;;;1999.90;999.90;;;;;;;32.14;37.36;95546.44;5069658;28;20184;-72
2021/07/13 09:18:35;;;;;;;1999.90;999.90;;;;;;;32.22;37.23;95552.38;5068736;28;20203;-73
2021/07/13 09:21:06;;;;;;;1999.90;999.90;;;;;;;32.40;37.75;95558.69;5069142;28;20742;-73
2021/07/13 09:23:33;;;;;;;1999.90;999.90;;;;;;;31.85;39.04;95551.16;5069210;28;20664;-73
2021/07/13 09:26:01;;;;;;;1999.90;999.90;;;;;;;31.99;38.10;95559.53;5068996;28;20257;-73
2021/07/13 09:28:28;;;;;;;1999.90;999.90;;;;;;;32.39;38.05;95553.72;5069018;28;20287;-74
2021/07/13 09:30:56;;;;;;;1999.90;999.90;;;;;;;32.65;35.59;95549.06;5069396;28;20272;-73
2021/07/13 09:33:27;;;;;;;1999.90;999.90;;;;;;;32.83;37.01;95546.53;5068736;28;20208;-72
2021/07/13 09:36:12;;;;;;;1999.90;999.90;;;;;;;32.60;36.61;95554.97;5069218;28;20189;-73
2021/07/13 09:38:43;;;;;;;1999.90;999.90;;;;;;;32.48;37.02;95546.50;5069317;28;20191;-74
2021/07/13 09:41:13;;;;;;;1999.90;999.90;;;;;;;32.67;36.92;95552.84;5068977;28;20203;-74
2021/07/13 09:43:43;;;;;;;1999.90;999.90;;;;;;;32.73;36.78;95547.63;5069429;28;20189;-72
2021/07/13 09:46:28;;;;;;;1999.90;999.90;;;;;;;33.03;35.23;95548.94;5069098;28;20192;-73
2021/07/13 09:49:20;;;;;;;1999.90;999.90;;;;;;;33.01;35.94;95541.28;5069419;28;20223;-73
2021/07/13 09:51:54;;;;;;;1999.90;999.90;;;;;;;33.14;34.22;95539.28;5069037;28;20684;-73
2021/07/13 09:54:30;;;;;;;1999.90;999.90;;;;;;;33.35;35.61;95531.66;5068989;28;20191;-73
2021/07/13 09:56:57;;;;;;;1999.90;999.90;;;;;;;33.69;35.31;95531.56;5067977;28;20199;-73
2021/07/13 09:59:24;;;;;;;1999.90;999.90;;;;;;;33.52;34.91;95524.88;5069157;28;20207;-72
2021/07/13 10:01:51;;;;;;;1999.90;999.90;;;;;;;33.55;35.41;95521.28;5068753;28;20707;-72
2021/07/13 10:04:21;;;;;;;1999.90;999.90;;;;;;;33.90;34.60;95522.66;5069160;28;20285;-72
2021/07/13 10:06:51;;;;;;;1999.90;999.90;;;;;;;33.91;33.78;95518.03;5068977;28;20257;-72
2021/07/13 10:09:21;;;;;;;1999.90;999.90;;;;;;;33.45;34.66;95517.03;5068920;28;20708;-71
2021/07/13 10:11:49;;;;;;;1999.90;999.90;;;;;;;33.46;35.35;95515.84;5068955;28;20649;-71
2021/07/13 10:14:17;;;;;;;1999.90;999.90;;;;;;;33.76;34.35;95517.06;5068874;28;20332;-72
2021/07/13 10:16:44;;;;;;;1999.90;999.90;;;;;;;34.03;32.37;95520.59;5068821;28;20622;-72
2021/07/13 10:19:11;;;;;;;1999.90;999.90;;;;;;;34.22;33.49;95515.28;5068549;28;20209;-71
2021/07/13 10:21:40;;;;;;;1999.90;999.90;;;;;;;34.30;33.30;95511.84;5068918;28;20192;-72
2021/07/13 10:24:07;;;;;;;1999.90;999.90;;;;;;;34.23;33.27;95511.38;5068480;28;20751;-73
2021/07/13 10:26:47;;;;;;;1999.90;999.90;;;;;;;33.98;33.57;95504.22;5068854;28;20196;-73
2021/07/13 10:29:45;;;;;;;1999.90;999.90;;;;;;;34.12;32.09;95504.41;5068465;28;20239;-73
2021/07/13 10:32:32;;;;;;;1999.90;999.90;;;;;;;34.31;29.73;95499.09;5068597;28;20673;-73
2021/07/13 10:35:02;;;;;;;1999.90;999.90;;;;;;;34.26;31.38;95495.06;5068817;28;20262;-73
2021/07/13 10:37:34;;;;;;;1999.90;999.90;;;;;;;34.07;31.23;95496.19;5068507;28;20192;-72
2021/07/13 10:40:04;;;;;;;1999.90;999.90;;;;;;;34.54;30.88;95496.56;5068576;28;20265;-72
2021/07/13 10:42:54;;;;;;;1999.90;999.90;;;;;;;34.56;31.77;95488.03;5068626;28;20226;-72
2021/07/13 10:45:24;;;;;;;1999.90;999.90;;;;;;;34.69;31.18;95491.34;5068707;28;20246;-74
2021/07/13 10:48:09;;;;;;;1999.90;999.90;;;;;;;34.72;27.97;95489.72;5068416;28;20224;-75
2021/07/13 10:50:47;;;;;;;1999.90;999.90;;;;;;;34.84;28.21;95486.84;5068626;28;20204;-75
2021/07/13 10:53:28;;;;;;;1999.90;999.90;;;;;;;34.98;27.55;95482.78;5068368;28;20736;-73
2021/07/13 10:56:01;;;;;;;1999.90;999.90;;;;;;;35.05;25.84;95487.88;5068229;28;20220;-75
2021/07/13 10:58:37;;;;;;;1999.90;999.90;;;;;;;35.02;27.50;95483.34;5068693;28;20185;-81
2021/07/13 11:01:18;;;;;;;1999.90;999.90;;;;;;;35.09;27.99;95483.06;5068558;28;20272;-76
2021/07/13 11:03:59;;;;;;;1999.90;999.90;;;;;;;34.62;27.10;95478.13;5068503;28;20653;-75
2021/07/13 11:07:00;;;;;;;1999.90;999.90;;;;;;;34.96;25.81;95477.84;5068503;28;20184;-74
2021/07/13 11:09:33;;;;;;;1999.90;999.90;;;;;;;35.13;26.42;95464.72;5071818;28;20219;-75
2021/07/13 11:12:17;;;;;;;1999.90;999.90;;;;;;;35.17;27.04;95472.69;5072376;28;20722;-73
2021/07/13 11:14:58;;;;;;;1999.90;999.90;;;;;;;35.26;27.04;95470.00;5072892;28;20212;-76
2021/07/13 11:17:27;;;;;;;1999.90;999.90;;;;;;;35.51;27.23;95472.31;5071785;28;20562;-76
2021/07/13 11:20:02;;;;;;;1999.90;999.90;;;;;;;35.55;26.80;95464.78;5071658;28;20282;-77
2021/07/13 11:22:30;;;;;;;1999.90;999.90;;;;;;;35.48;26.90;95467.06;5071421;28;20192;-75
2021/07/13 11:24:58;;;;;;;1999.90;999.90;;;;;;;35.31;26.86;95463.97;5071376;28;20201;-74